Time;durP1;ratioP1;P1;durP2;ratioP2;P2;SDS_P1;SDS_P2;PMS_P1;PMS_P2;Temp;Humidity;BMP_temperature;BMP_pressure;BME280_temperature;BME280_humidity;BME280_pressure;Samples;Min_cycle;Max_cycle;Signal;HPM_P1;HPM_P2
2021/06/09 00:01:19;;;;;;;0.90;0.90;;;23.20;51.70;;;;;;6294082;28;20099;-71
2021/06/09 00:04:20;;;;;;;1.02;0.93;;;23.20;51.70;;;;;;6294497;28;20036;-71
2021/06/09 00:07:20;;;;;;;1.20;1.10;;;23.20;51.70;;;;;;6294210;28;20028;-71
2021/06/09 00:10:21;;;;;;;1.45;1.25;;;23.20;51.70;;;;;;6294226;28;20025;-71
2021/06/09 00:13:28;;;;;;;1.10;1.00;;;23.20;51.70;;;;;;6293875;28;20044;-71
2021/06/09 00:16:29;;;;;;;1.10;1.00;;;23.20;51.70;;;;;;6294125;28;20029;-71
2021/06/09 00:19:30;;;;;;;0.90;0.75;;;23.20;51.70;;;;;;6293914;28;20032;-71
2021/06/09 00:22:30;;;;;;;1.00;0.90;;;23.20;51.60;;;;;;6285480;28;20541;-71
2021/06/09 00:25:31;;;;;;;1.02;0.93;;;23.20;51.70;;;;;;6293739;28;20063;-70
2021/06/09 00:28:34;;;;;;;1.15;1.02;;;23.20;51.70;;;;;;6293725;28;20047;-70
2021/06/09 00:31:35;;;;;;;1.10;1.00;;;23.20;51.70;;;;;;6293952;28;20624;-71
2021/06/09 00:34:35;;;;;;;0.88;0.85;;;23.20;51.70;;;;;;6293814;28;20036;-71
2021/06/09 00:37:36;;;;;;;1.20;1.10;;;23.20;51.70;;;;;;6293813;28;20020;-71
2021/06/09 00:40:37;;;;;;;0.77;0.77;;;23.20;51.70;;;;;;6294815;28;20384;-71
2021/06/09 00:43:38;;;;;;;1.15;1.05;;;23.20;51.70;;;;;;6281027;28;20032;-71
2021/06/09 00:46:42;;;;;;;1.10;1.00;;;23.20;51.70;;;;;;6290695;28;20070;-71
2021/06/09 00:49:43;;;;;;;1.10;1.00;;;23.20;51.70;;;;;;6293489;28;20284;-71
2021/06/09 00:52:43;;;;;;;1.40;1.20;;;23.20;51.70;;;;;;6287935;28;20025;-71
2021/06/09 00:55:44;;;;;;;1.10;1.00;;;23.20;51.70;;;;;;6290236;28;20063;-71
2021/06/09 00:58:46;;;;;;;0.93;0.85;;;23.20;51.70;;;;;;6293343;28;20483;-70
2021/06/09 01:01:47;;;;;;;1.13;0.93;;;23.20;51.70;;;;;;6292607;28;20494;-71
2021/06/09 01:04:47;;;;;;;1.20;1.10;;;23.20;51.70;;;;;;6293294;28;20044;-71
2021/06/09 01:07:48;;;;;;;1.20;1.00;;;23.20;51.70;;;;;;6292931;28;20024;-71
2021/06/09 01:10:50;;;;;;;1.30;1.13;;;23.20;51.70;;;;;;6276102;28;20032;-71
2021/06/09 01:13:51;;;;;;;1.00;0.90;;;23.20;51.70;;;;;;6274678;28;20438;-71
2021/06/09 01:16:52;;;;;;;1.20;1.10;;;23.20;51.70;;;;;;6292606;28;20017;-71
2021/06/09 01:19:53;;;;;;;1.38;1.20;;;23.20;51.70;;;;;;6292445;28;20048;-71
2021/06/09 01:22:54;;;;;;;1.23;0.93;;;23.20;51.70;;;;;;6289310;28;20028;-71
2021/06/09 01:25:55;;;;;;;1.10;1.00;;;23.20;51.70;;;;;;6293012;28;20021;-70
2021/06/09 01:28:58;;;;;;;1.20;1.00;;;23.20;51.70;;;;;;6292418;28;20028;-70
2021/06/09 01:31:59;;;;;;;1.10;1.00;;;23.20;51.70;;;;;;6292684;28;20044;-71
2021/06/09 01:35:00;;;;;;;1.15;1.05;;;23.20;51.70;;;;;;6292429;28;20028;-71
2021/06/09 01:38:02;;;;;;;1.10;1.00;;;23.20;51.70;;;;;;6292024;28;20108;-71
2021/06/09 01:41:03;;;;;;;1.02;0.90;;;23.20;51.70;;;;;;6283950;28;20033;-71
2021/06/09 01:44:03;;;;;;;1.10;0.90;;;23.20;51.70;;;;;;6289404;28;20643;-71
2021/06/09 01:47:04;;;;;;;1.02;0.93;;;23.20;51.70;;;;;;6291625;28;20134;-71
2021/06/09 01:50:07;;;;;;;1.10;0.93;;;23.20;51.70;;;;;;6292139;28;20697;-71
2021/06/09 01:53:09;;;;;;;1.10;1.00;;;23.20;51.70;;;;;;6283110;28;20036;-71
2021/06/09 01:56:10;;;;;;;1.40;1.10;;;23.20;51.70;;;;;;6287514;28;20034;-71
2021/06/09 01:59:15;;;;;;;0.80;0.80;;;23.20;51.70;;;;;;6291757;28;20056;-71
2021/06/09 02:02:15;;;;;;;1.10;1.00;;;23.20;51.80;;;;;;6291850;28;20399;-71
2021/06/09 02:05:16;;;;;;;1.00;0.90;;;23.20;51.80;;;;;;6291473;28;20028;-71
2021/06/09 02:08:16;;;;;;;1.10;1.00;;;23.20;51.70;;;;;;6291379;28;20386;-71
2021/06/09 02:11:17;;;;;;;1.00;1.00;;;23.20;51.70;;;;;;6291507;28;20364;-71
2021/06/09 02:14:18;;;;;;;1.08;0.98;;;23.20;51.80;;;;;;6285238;28;20056;-71
2021/06/09 02:17:19;;;;;;;1.08;0.98;;;23.20;51.70;;;;;;6291480;28;20037;-71
2021/06/09 02:20:20;;;;;;;1.10;1.00;;;23.20;51.70;;;;;;6291354;28;20364;-71
2021/06/09 02:23:23;;;;;;;1.40;0.98;;;23.20;51.70;;;;;;6290889;28;20033;-71
2021/06/09 02:26:24;;;;;;;1.30;1.20;;;23.20;51.70;;;;;;6290771;28;20590;-71
2021/06/09 02:29:25;;;;;;;0.93;0.88;;;23.20;51.70;;;;;;6290840;28;20400;-71
2021/06/09 02:32:26;;;;;;;1.10;1.00;;;23.20;51.70;;;;;;6291058;28;20040;-71
2021/06/09 02:35:26;;;;;;;1.08;0.95;;;23.20;51.70;;;;;;6290915;28;20035;-70
2021/06/09 02:38:27;;;;;;;1.73;1.02;;;23.20;51.70;;;;;;6291033;28;20036;-71
2021/06/09 02:41:28;;;;;;;1.20;1.10;;;23.20;51.70;;;;;;6296720;28;20060;-70
2021/06/09 02:44:28;;;;;;;1.00;0.90;;;23.20;51.70;;;;;;6282376;28;20032;-71
2021/06/09 02:47:29;;;;;;;1.23;1.10;;;23.20;51.70;;;;;;6291087;28;20121;-71
2021/06/09 02:50:30;;;;;;;1.10;0.93;;;23.20;51.70;;;;;;6290872;28;20025;-70
2021/06/09 02:53:38;;;;;;;1.10;1.00;;;23.20;51.80;;;;;;6285109;28;20086;-71
2021/06/09 02:57:01;;;;;;;1.00;0.90;;;23.20;51.80;;;;;;6290908;28;20029;-71
2021/06/09 03:00:36;;;;;;;0.90;0.90;;;23.20;52.00;;;;;;6290483;28;20032;-70
2021/06/09 03:03:47;;;;;;;1.07;0.93;;;23.20;51.80;;;;;;6290152;28;20050;-71
2021/06/09 03:07:04;;;;;;;1.30;1.02;;;23.20;51.70;;;;;;6290429;28;20031;-71
2021/06/09 03:10:16;;;;;;;1.10;1.00;;;23.20;51.80;;;;;;6290324;28;20475;-70
2021/06/09 03:14:04;;;;;;;1.40;1.08;;;23.20;51.80;;;;;;6291182;28;20060;-71
2021/06/09 03:17:15;;;;;;;0.80;0.80;;;23.20;51.70;;;;;;6290583;28;20459;-70
2021/06/09 03:20:37;;;;;;;0.93;0.88;;;23.20;52.50;;;;;;6290067;28;20284;-71
2021/06/09 03:23:58;;;;;;;0.90;0.90;;;23.20;51.80;;;;;;6290200;28;20024;-71
2021/06/09 03:27:15;;;;;;;0.82;0.82;;;23.20;51.80;;;;;;6275278;28;20135;-71
2021/06/09 03:30:18;;;;;;;1.02;0.90;;;23.20;51.80;;;;;;6285595;28;20099;-72
2021/06/09 03:33:20;;;;;;;1.08;0.98;;;23.20;51.80;;;;;;6290327;28;20115;-71
2021/06/09 03:36:24;;;;;;;1.17;1.08;;;23.20;51.80;;;;;;6289962;28;20111;-70
2021/06/09 03:39:26;;;;;;;1.10;0.98;;;23.20;51.80;;;;;;6287266;28;20641;-71
2021/06/09 03:42:30;;;;;;;0.95;0.80;;;23.20;51.80;;;;;;6279006;28;20050;-71
2021/06/09 03:45:34;;;;;;;1.10;1.00;;;23.20;51.80;;;;;;6289814;28;20037;-71
2021/06/09 03:48:41;;;;;;;1.05;0.90;;;23.20;51.80;;;;;;6290278;28;20029;-71
2021/06/09 03:51:43;;;;;;;1.17;1.08;;;23.20;51.80;;;;;;6289673;28;20024;-71
2021/06/09 03:55:10;;;;;;;1.00;0.90;;;23.20;51.80;;;;;;6288586;28;20021;-71
2021/06/09 03:58:15;;;;;;;0.98;0.90;;;23.20;51.80;;;;;;6287724;28;20040;-71
2021/06/09 04:01:16;;;;;;;0.75;0.75;;;23.20;51.80;;;;;;6289582;28;20029;-70
2021/06/09 04:04:20;;;;;;;1.08;0.98;;;23.20;51.80;;;;;;6272119;28;20135;-71
2021/06/09 04:07:27;;;;;;;0.88;0.82;;;23.20;51.80;;;;;;6290152;28;20119;-71
2021/06/09 04:10:29;;;;;;;0.90;0.90;;;23.20;51.80;;;;;;6289000;28;20040;-71
2021/06/09 04:13:30;;;;;;;0.90;0.80;;;23.20;51.80;;;;;;6289752;28;20545;-71
2021/06/09 04:16:34;;;;;;;0.93;0.82;;;23.20;51.80;;;;;;6293734;28;20021;-71
2021/06/09 04:19:39;;;;;;;1.48;1.00;;;23.20;51.80;;;;;;6293525;28;20107;-70
2021/06/09 04:22:40;;;;;;;0.75;0.75;;;23.20;51.80;;;;;;6293885;28;20072;-71
2021/06/09 04:25:40;;;;;;;0.90;0.90;;;23.20;51.80;;;;;;6293679;28;20116;-71
2021/06/09 04:28:45;;;;;;;0.85;0.85;;;23.20;51.80;;;;;;6287697;28;20093;-71
2021/06/09 04:31:47;;;;;;;1.27;0.98;;;23.20;51.80;;;;;;6292455;28;20402;-71
2021/06/09 04:34:52;;;;;;;1.10;1.00;;;23.20;51.80;;;;;;6293842;28;20518;-71
2021/06/09 04:37:53;;;;;;;0.95;0.90;;;23.20;51.80;;;;;;6293306;28;20407;-71
2021/06/09 04:40:54;;;;;;;0.88;0.80;;;23.20;51.80;;;;;;6293018;28;20020;-71
2021/06/09 04:43:54;;;;;;;1.00;0.90;;;23.20;51.80;;;;;;6293822;28;20036;-70
2021/06/09 04:46:55;;;;;;;1.00;0.90;;;23.20;51.80;;;;;;6293268;28;20074;-71
2021/06/09 04:49:55;;;;;;;1.20;1.10;;;23.20;51.80;;;;;;6293529;28;20025;-71
2021/06/09 04:53:11;;;;;;;1.10;1.00;;;23.20;51.80;;;;;;6285993;28;20688;-71
2021/06/09 04:56:12;;;;;;;1.25;1.10;;;23.20;51.90;;;;;;6292448;28;20036;-71
2021/06/09 04:59:12;;;;;;;1.10;0.98;;;23.20;51.80;;;;;;6292680;28;20024;-71
2021/06/09 05:02:13;;;;;;;1.02;0.93;;;23.20;51.90;;;;;;6292683;28;20029;-71
2021/06/09 05:05:14;;;;;;;1.15;0.93;;;23.20;51.90;;;;;;6288755;28;20033;-70
2021/06/09 05:08:15;;;;;;;0.98;0.90;;;23.20;51.90;;;;;;6288494;28;20498;-71
2021/06/09 05:11:21;;;;;;;1.30;1.13;;;23.20;51.90;;;;;;6279240;28;20064;-71
2021/06/09 05:14:27;;;;;;;1.10;0.90;;;23.20;51.90;;;;;;6288792;28;20507;-69
2021/06/09 05:17:30;;;;;;;1.98;1.45;;;23.10;51.70;;;;;;6290899;28;20934;-70
2021/06/09 05:20:34;;;;;;;6.53;2.08;;;23.10;51.40;;;;;;6277945;28;20027;-71
2021/06/09 05:23:40;;;;;;;6.85;2.33;;;23.10;50.10;;;;;;6273440;28;20541;-71
2021/06/09 05:26:43;;;;;;;4.22;2.10;;;23.00;49.70;;;;;;6283643;28;20434;-71
2021/06/09 05:29:45;;;;;;;4.53;2.40;;;23.00;49.50;;;;;;6297730;28;20028;-71
2021/06/09 05:32:46;;;;;;;3.33;1.75;;;23.00;49.10;;;;;;6294502;28;20079;-71
2021/06/09 05:35:51;;;;;;;5.60;1.85;;;23.00;50.60;;;;;;6285671;28;20016;-71
2021/06/09 05:38:51;;;;;;;6.35;2.58;;;23.00;49.00;;;;;;6274827;28;20044;-70
2021/06/09 05:41:52;;;;;;;10.32;3.10;;;23.00;48.20;;;;;;6292804;28;20394;-71
2021/06/09 05:44:54;;;;;;;5.05;2.22;;;23.00;48.30;;;;;;6285111;28;20060;-71
2021/06/09 05:47:55;;;;;;;5.43;1.77;;;23.00;48.60;;;;;;6282935;28;20024;-71
2021/06/09 05:50:58;;;;;;;4.78;1.90;;;22.90;48.70;;;;;;6290597;28;20036;-70
2021/06/09 05:53:58;;;;;;;10.02;3.22;;;22.90;49.60;;;;;;6282283;28;20016;-71
2021/06/09 05:57:01;;;;;;;6.32;2.47;;;22.90;49.10;;;;;;6291213;28;20032;-71
2021/06/09 06:00:03;;;;;;;5.60;2.97;;;22.90;48.50;;;;;;6273701;28;20075;-71
2021/06/09 06:03:04;;;;;;;11.45;3.10;;;22.90;48.00;;;;;;6284354;28;20264;-71
2021/06/09 06:06:10;;;;;;;7.00;2.65;;;23.00;48.00;;;;;;6290841;28;20425;-71
2021/06/09 06:09:11;;;;;;;6.15;2.70;;;23.00;48.00;;;;;;6282850;28;20024;-71
2021/06/09 06:12:12;;;;;;;5.82;2.47;;;23.00;48.30;;;;;;6292740;28;20078;-71
2021/06/09 06:15:13;;;;;;;6.88;2.00;;;23.00;47.80;;;;;;6292603;28;20055;-71
2021/06/09 06:18:14;;;;;;;5.00;2.20;;;22.90;48.50;;;;;;6291279;28;20036;-70
2021/06/09 06:21:17;;;;;;;5.28;1.80;;;22.90;47.70;;;;;;6291872;28;20418;-71
2021/06/09 06:24:19;;;;;;;7.70;1.65;;;22.90;47.80;;;;;;6291279;28;20025;-71
2021/06/09 06:27:20;;;;;;;5.05;1.63;;;23.00;46.90;;;;;;6292799;28;20031;-71
2021/06/09 06:30:23;;;;;;;2.85;1.35;;;23.00;47.30;;;;;;6291661;28;20074;-71
2021/06/09 06:33:25;;;;;;;9.85;2.28;;;23.00;47.70;;;;;;6291316;28;20504;-71
2021/06/09 06:36:27;;;;;;;7.05;1.80;;;23.00;47.60;;;;;;6290971;28;20032;-71
2021/06/09 06:39:28;;;;;;;4.30;1.90;;;23.00;47.00;;;;;;6290592;28;20063;-71
2021/06/09 06:42:29;;;;;;;2.85;1.60;;;23.00;47.20;;;;;;6292082;28;20028;-71
2021/06/09 06:45:30;;;;;;;7.53;1.80;;;23.00;47.30;;;;;;6291947;28;20111;-71
2021/06/09 06:48:33;;;;;;;9.13;1.85;;;23.00;47.30;;;;;;6291868;28;20051;-71
2021/06/09 06:51:35;;;;;;;3.22;1.67;;;23.00;46.60;;;;;;6292045;28;20509;-71
2021/06/09 06:54:36;;;;;;;4.00;1.52;;;23.00;46.60;;;;;;6272625;28;20262;-70
2021/06/09 06:57:37;;;;;;;2.50;1.50;;;23.00;46.80;;;;;;6292435;28;20333;-71
2021/06/09 07:00:38;;;;;;;4.75;1.58;;;23.00;47.80;;;;;;6289502;28;20145;-71
2021/06/09 07:03:42;;;;;;;3.13;1.60;;;23.00;47.20;;;;;;6288080;28;20032;-70
2021/06/09 07:06:44;;;;;;;6.65;2.00;;;23.00;46.70;;;;;;6286469;28;20044;-70
2021/06/09 07:09:45;;;;;;;2.85;1.50;;;23.00;46.50;;;;;;6290857;28;20427;-71
2021/06/09 07:12:46;;;;;;;7.35;1.90;;;23.00;46.20;;;;;;6279515;28;20036;-70
2021/06/09 07:15:48;;;;;;;8.52;1.40;;;23.00;46.40;;;;;;6287174;28;20464;-70
2021/06/09 07:18:50;;;;;;;2.83;1.40;;;23.00;46.50;;;;;;6282677;28;20059;-71
2021/06/09 07:21:50;;;;;;;3.88;1.50;;;23.00;47.00;;;;;;6280697;28;20333;-71
2021/06/09 07:24:52;;;;;;;2.85;1.52;;;23.10;47.50;;;;;;6291383;28;20037;-71
2021/06/09 07:27:57;;;;;;;5.65;1.60;;;23.10;47.60;;;;;;6291912;28;20020;-71
2021/06/09 07:30:58;;;;;;;;;;;23.10;47.80;;;;;;6291380;28;20025;-71
2021/06/09 07:33:59;;;;;;;5.18;1.85;;;23.10;47.90;;;;;;6291415;28;19957;-71
2021/06/09 07:37:02;;;;;;;2.65;1.40;;;23.10;48.20;;;;;;6290865;28;20448;-71
2021/06/09 07:40:07;;;;;;;3.70;1.20;;;23.10;48.50;;;;;;6290838;28;20025;-71
2021/06/09 07:43:11;;;;;;;2.20;1.17;;;23.10;48.70;;;;;;6290738;28;20119;-70
2021/06/09 07:46:26;;;;;;;3.25;1.20;;;23.10;48.70;;;;;;6291467;28;20032;-71
2021/06/09 07:49:28;;;;;;;1.48;1.23;;;23.10;49.00;;;;;;6293669;28;20032;-71
2021/06/09 07:52:30;;;;;;;1.58;1.10;;;23.10;49.10;;;;;;6291819;28;20339;-71
2021/06/09 07:55:32;;;;;;;2.42;1.25;;;23.10;49.20;;;;;;6287371;28;20067;-70
2021/06/09 07:58:33;;;;;;;1.85;1.30;;;23.10;49.30;;;;;;6295572;28;20436;-71
2021/06/09 08:01:35;;;;;;;1.92;1.30;;;23.10;49.40;;;;;;6294244;28;20071;-71
2021/06/09 08:04:36;;;;;;;2.10;1.30;;;23.10;49.50;;;;;;6292073;28;20486;-72
2021/06/09 08:07:38;;;;;;;1.35;1.05;;;23.10;49.50;;;;;;6285756;28;20479;-71
2021/06/09 08:10:40;;;;;;;1.52;1.05;;;23.10;49.60;;;;;;6291987;28;20035;-71
2021/06/09 08:13:43;;;;;;;1.92;1.20;;;23.10;49.70;;;;;;6288903;28;20117;-71
2021/06/09 08:16:43;;;;;;;1.23;0.93;;;23.10;49.70;;;;;;6291625;28;20020;-70
2021/06/09 08:19:44;;;;;;;2.65;1.25;;;23.10;49.80;;;;;;6295390;28;20025;-71
2021/06/09 08:22:45;;;;;;;1.45;1.10;;;23.10;49.80;;;;;;6294026;28;20027;-72
2021/06/09 08:25:46;;;;;;;2.28;1.00;;;23.10;49.90;;;;;;6294890;28;20469;-71
2021/06/09 08:28:47;;;;;;;1.88;1.15;;;23.10;49.90;;;;;;6290958;28;20020;-71
2021/06/09 08:31:47;;;;;;;1.90;1.08;;;23.10;50.00;;;;;;6294367;28;20029;-71
2021/06/09 08:34:48;;;;;;;1.45;1.10;;;23.10;50.00;;;;;;6295138;28;20548;-71
2021/06/09 08:37:48;;;;;;;1.15;1.00;;;23.10;50.10;;;;;;6294107;28;20074;-70
2021/06/09 08:40:51;;;;;;;1.65;1.00;;;23.10;50.10;;;;;;6293904;28;20098;-71
2021/06/09 08:43:52;;;;;;;1.33;1.00;;;23.10;50.10;;;;;;6285909;28;20033;-71
2021/06/09 08:46:57;;;;;;;1.27;0.90;;;23.10;50.20;;;;;;6288057;28;20365;-71
2021/06/09 08:49:59;;;;;;;1.13;0.80;;;23.10;50.20;;;;;;6295235;28;20069;-70
2021/06/09 08:53:06;;;;;;;1.90;0.93;;;23.10;50.20;;;;;;6285673;28;20021;-71
2021/06/09 08:56:07;;;;;;;1.85;0.90;;;23.10;50.20;;;;;;6281006;28;20029;-70
2021/06/09 08:59:07;;;;;;;1.40;0.95;;;23.10;50.30;;;;;;6294703;28;20025;-71
2021/06/09 09:02:09;;;;;;;1.10;0.93;;;23.10;50.30;;;;;;6293068;28;20055;-71
2021/06/09 09:05:11;;;;;;;0.80;0.80;;;23.10;50.30;;;;;;6288945;28;20060;-71
2021/06/09 09:08:11;;;;;;;1.15;0.93;;;23.10;50.30;;;;;;6291692;28;20025;-71
2021/06/09 09:11:12;;;;;;;1.08;0.90;;;23.10;50.40;;;;;;6283797;28;20062;-71
2021/06/09 09:14:17;;;;;;;1.00;0.90;;;23.10;50.40;;;;;;6293296;28;20129;-72
2021/06/09 09:17:18;;;;;;;1.02;0.93;;;23.10;50.40;;;;;;6292686;28;20104;-71
2021/06/09 09:20:31;;;;;;;1.08;0.90;;;23.10;50.40;;;;;;6293842;28;20021;-71
2021/06/09 09:23:33;;;;;;;1.15;0.88;;;23.10;50.40;;;;;;6290058;28;20028;-71
2021/06/09 09:26:35;;;;;;;1.17;0.60;;;23.10;50.50;;;;;;6292909;28;20457;-71
2021/06/09 09:29:35;;;;;;;0.82;0.60;;;23.10;50.50;;;;;;6293500;28;20025;-71
2021/06/09 09:32:54;;;;;;;0.90;0.80;;;23.10;50.50;;;;;;6292955;28;20190;-70
2021/06/09 09:35:55;;;;;;;1.10;1.00;;;23.10;50.50;;;;;;6294086;28;20024;-71
2021/06/09 09:38:57;;;;;;;1.00;0.80;;;23.10;50.50;;;;;;6293222;28;20037;-70
2021/06/09 09:42:26;;;;;;;4.25;0.80;;;23.10;50.50;;;;;;6292593;28;20028;-71
2021/06/09 09:45:29;;;;;;;1.08;0.80;;;23.10;50.60;;;;;;6290937;28;20045;-71
2021/06/09 09:48:29;;;;;;;1.75;0.90;;;23.20;50.70;;;;;;6293017;28;20475;-71
2021/06/09 09:51:33;;;;;;;0.73;0.73;;;23.10;50.70;;;;;;6292447;28;20099;-71
2021/06/09 09:54:37;;;;;;;0.93;0.77;;;23.10;50.70;;;;;;6291231;28;20459;-71
2021/06/09 09:57:39;;;;;;;3.33;0.93;;;23.10;50.70;;;;;;6292404;28;20032;-70
2021/06/09 10:00:39;;;;;;;0.98;0.85;;;23.10;51.40;;;;;;6292962;28;20040;-71
2021/06/09 10:03:42;;;;;;;0.95;0.73;;;23.10;50.70;;;;;;6292255;28;20064;-70
2021/06/09 10:06:45;;;;;;;0.93;0.70;;;23.10;50.70;;;;;;6279513;28;20112;-71
2021/06/09 10:09:47;;;;;;;1.63;0.80;;;23.10;50.80;;;;;;6292092;28;20036;-71
2021/06/09 10:13:13;;;;;;;1.67;0.95;;;23.10;50.80;;;;;;6291359;28;20131;-71
2021/06/09 10:16:25;;;;;;;1.67;0.88;;;23.10;50.70;;;;;;6292321;28;20063;-71
2021/06/09 10:19:31;;;;;;;1.23;0.80;;;23.10;50.80;;;;;;6287280;28;20090;-71
2021/06/09 10:22:36;;;;;;;0.68;0.68;;;23.10;50.80;;;;;;6272926;28;20032;-71
2021/06/09 10:25:36;;;;;;;1.20;0.77;;;23.10;50.80;;;;;;6285055;28;20044;-71
2021/06/09 10:28:56;;;;;;;0.90;0.63;;;23.10;50.80;;;;;;6292180;28;20552;-71
2021/06/09 10:32:00;;;;;;;1.73;0.70;;;23.10;50.80;;;;;;6291612;28;20074;-71
2021/06/09 10:35:01;;;;;;;0.80;0.80;;;23.10;50.80;;;;;;6291713;28;20555;-71
2021/06/09 10:38:02;;;;;;;1.17;0.80;;;23.10;50.90;;;;;;6291676;28;20025;-72
2021/06/09 10:41:03;;;;;;;1.00;0.90;;;23.10;50.90;;;;;;6290354;28;20016;-71
2021/06/09 10:44:04;;;;;;;0.80;0.70;;;23.10;50.90;;;;;;6288013;28;20033;-71
2021/06/09 10:47:10;;;;;;;0.88;0.75;;;23.10;50.90;;;;;;6291945;28;20025;-70
2021/06/09 10:50:14;;;;;;;1.00;0.80;;;23.10;50.90;;;;;;6291619;28;20060;-71
2021/06/09 10:53:16;;;;;;;1.15;0.73;;;23.10;51.00;;;;;;6284502;28;20099;-71
2021/06/09 10:56:17;;;;;;;2.10;0.80;;;23.10;50.90;;;;;;6291805;28;20123;-70
2021/06/09 10:59:23;;;;;;;0.70;0.70;;;23.10;51.00;;;;;;6291390;28;20025;-71
2021/06/09 11:02:24;;;;;;;1.35;0.60;;;23.10;50.90;;;;;;6291171;28;20109;-70
2021/06/09 11:05:26;;;;;;;2.00;0.90;;;23.10;50.90;;;;;;6281451;28;20118;-71
2021/06/09 11:08:28;;;;;;;2.67;1.00;;;23.10;51.00;;;;;;6291747;28;20455;-71
2021/06/09 11:11:29;;;;;;;0.90;0.60;;;23.10;51.00;;;;;;6286998;28;20522;-71
2021/06/09 11:14:29;;;;;;;0.70;0.70;;;23.10;51.00;;;;;;6277994;28;20055;-71
2021/06/09 11:17:34;;;;;;;1.00;0.80;;;23.10;51.00;;;;;;6279207;28;20388;-71
2021/06/09 11:20:38;;;;;;;0.85;0.75;;;23.10;51.00;;;;;;6287183;28;20028;-71
2021/06/09 11:23:40;;;;;;;1.08;0.80;;;23.10;51.10;;;;;;6292230;28;20078;-71
2021/06/09 11:26:42;;;;;;;1.35;0.73;;;23.10;51.00;;;;;;6291857;28;20050;-71
2021/06/09 11:29:43;;;;;;;1.42;0.65;;;23.10;51.00;;;;;;6286412;28;20071;-71
2021/06/09 11:32:43;;;;;;;0.70;0.68;;;23.10;51.00;;;;;;6295497;28;20331;-71
2021/06/09 11:35:47;;;;;;;0.80;0.65;;;23.10;51.10;;;;;;6296096;28;20032;-70
2021/06/09 11:38:50;;;;;;;1.13;0.55;;;23.10;51.10;;;;;;6295388;28;20107;-71
2021/06/09 11:41:53;;;;;;;1.80;0.80;;;23.10;51.10;;;;;;6295151;28;20068;-70
2021/06/09 11:44:53;;;;;;;0.93;0.70;;;23.10;51.10;;;;;;6295728;28;20041;-70
2021/06/09 11:48:17;;;;;;;0.95;0.68;;;23.10;51.10;;;;;;6295086;28;20082;-71
2021/06/09 11:51:33;;;;;;;0.95;0.57;;;23.10;51.10;;;;;;6294738;28;20071;-71
2021/06/09 11:54:36;;;;;;;0.70;0.70;;;23.10;51.10;;;;;;6279950;28;20430;-71
2021/06/09 11:57:37;;;;;;;0.90;0.70;;;23.10;51.10;;;;;;6295238;28;20200;-71
2021/06/09 12:01:03;;;;;;;0.90;0.90;;;23.10;51.20;;;;;;6294843;28;20029;-70
2021/06/09 12:04:25;;;;;;;1.02;0.80;;;23.10;51.20;;;;;;6282700;28;20045;-70
2021/06/09 12:07:28;;;;;;;1.10;0.90;;;23.10;51.10;;;;;;6291968;28;20040;-71
2021/06/09 12:10:28;;;;;;;1.40;1.00;;;23.10;51.20;;;;;;6295380;28;20341;-71
2021/06/09 12:13:29;;;;;;;1.30;1.00;;;23.10;51.20;;;;;;6295112;28;20384;-71
2021/06/09 12:16:29;;;;;;;1.30;1.00;;;23.10;51.20;;;;;;6294898;28;20020;-71
2021/06/09 12:19:32;;;;;;;1.50;1.10;;;23.10;51.20;;;;;;6286891;28;20035;-71
2021/06/09 12:22:33;;;;;;;1.30;1.10;;;23.10;51.20;;;;;;6294300;28;20029;-70
2021/06/09 12:25:34;;;;;;;3.38;1.02;;;23.10;51.20;;;;;;6289409;28;20037;-71
2021/06/09 12:28:34;;;;;;;1.95;1.20;;;23.10;51.20;;;;;;6293848;28;20078;-71
2021/06/09 12:31:36;;;;;;;1.20;1.10;;;23.10;51.20;;;;;;6281970;28;20079;-71
2021/06/09 12:34:37;;;;;;;2.63;1.55;;;23.10;51.20;;;;;;6292009;28;20035;-71
2021/06/09 12:37:43;;;;;;;1.73;1.30;;;23.10;51.20;;;;;;6293497;28;20104;-70
2021/06/09 12:40:48;;;;;;;2.55;1.55;;;23.10;51.20;;;;;;6292577;28;20030;-71
2021/06/09 12:43:48;;;;;;;1.52;1.00;;;23.10;51.30;;;;;;6293043;28;20033;-70
2021/06/09 12:46:54;;;;;;;2.60;1.40;;;23.10;51.30;;;;;;6293253;28;20181;-71
2021/06/09 12:50:17;;;;;;;1.60;1.30;;;23.10;51.30;;;;;;6292547;28;20025;-71
2021/06/09 12:53:20;;;;;;;1.63;1.17;;;23.10;51.30;;;;;;6281953;28;20439;-71
2021/06/09 12:56:21;;;;;;;1.70;1.27;;;23.10;51.30;;;;;;6292796;28;20035;-70
2021/06/09 12:59:37;;;;;;;1.95;1.33;;;23.10;51.30;;;;;;6293505;28;20029;-70
2021/06/09 13:02:37;;;;;;;1.77;1.25;;;23.10;51.30;;;;;;6274079;28;20364;-71
2021/06/09 13:05:40;;;;;;;1.52;1.17;;;23.10;51.30;;;;;;6287485;28;20041;-70
2021/06/09 13:08:43;;;;;;;1.50;1.20;;;23.10;51.30;;;;;;6285511;28;20048;-71
2021/06/09 13:11:45;;;;;;;2.05;1.35;;;23.20;51.40;;;;;;6292051;28;20102;-71
2021/06/09 13:14:48;;;;;;;2.85;1.20;;;23.10;51.30;;;;;;6293038;28;20052;-71
2021/06/09 13:17:49;;;;;;;1.63;1.30;;;23.10;51.30;;;;;;6269632;28;20025;-71
2021/06/09 13:20:50;;;;;;;1.67;1.30;;;23.10;51.30;;;;;;6280289;28;20475;-70
2021/06/09 13:24:19;;;;;;;1.88;1.30;;;23.10;51.30;;;;;;6292691;28;20116;-70
2021/06/09 13:27:20;;;;;;;2.53;1.38;;;23.20;51.40;;;;;;6284532;28;20052;-72
2021/06/09 13:30:21;;;;;;;1.92;1.38;;;23.10;51.30;;;;;;6288373;28;20025;-71
2021/06/09 13:33:22;;;;;;;2.38;1.48;;;23.10;51.30;;;;;;6292347;28;20028;-70
2021/06/09 13:36:23;;;;;;;2.55;1.45;;;23.20;51.40;;;;;;6293629;28;20083;-71
2021/06/09 13:39:25;;;;;;;1.98;1.40;;;23.10;51.30;;;;;;6291610;28;20031;-71
2021/06/09 13:42:34;;;;;;;2.22;1.58;;;23.20;51.40;;;;;;6290631;28;20040;-71
2021/06/09 13:45:49;;;;;;;2.55;1.40;;;23.10;51.40;;;;;;6292093;28;20032;-70
2021/06/09 13:48:50;;;;;;;2.03;1.42;;;23.10;51.40;;;;;;6292086;28;20035;-70
2021/06/09 13:51:51;;;;;;;2.00;1.23;;;23.10;51.40;;;;;;6292045;28;20471;-70
2021/06/09 13:54:54;;;;;;;1.73;1.20;;;23.10;51.40;;;;;;6290886;28;20422;-71
2021/06/09 13:57:55;;;;;;;2.67;1.48;;;23.10;51.40;;;;;;6273618;28;20029;-71
2021/06/09 14:00:58;;;;;;;2.08;1.40;;;23.10;51.40;;;;;;6288811;28;20087;-71
2021/06/09 14:03:58;;;;;;;1.95;1.30;;;23.10;51.40;;;;;;6292129;28;20120;-71
2021/06/09 14:07:05;;;;;;;2.45;1.58;;;23.10;51.40;;;;;;6278363;28;20047;-71
2021/06/09 14:10:08;;;;;;;2.30;1.70;;;23.10;51.40;;;;;;6291870;28;20012;-71
2021/06/09 14:13:27;;;;;;;1.80;1.25;;;23.10;51.50;;;;;;6290950;28;20048;-69
2021/06/09 14:16:27;;;;;;;1.60;1.00;;;23.10;51.40;;;;;;6277387;28;20044;-71
2021/06/09 14:19:28;;;;;;;1.30;1.10;;;23.10;51.40;;;;;;6288643;28;20479;-71
2021/06/09 14:22:43;;;;;;;1.90;1.30;;;23.10;51.40;;;;;;6291296;28;20025;-70
2021/06/09 14:25:46;;;;;;;2.58;1.38;;;23.10;51.50;;;;;;6270645;28;20064;-71
2021/06/09 14:28:48;;;;;;;2.78;1.80;;;23.10;51.50;;;;;;6272719;28;20032;-70
2021/06/09 14:31:49;;;;;;;2.20;1.70;;;23.10;51.50;;;;;;6267705;28;20503;-71
2021/06/09 14:34:50;;;;;;;2.53;1.42;;;23.10;51.50;;;;;;6281937;28;20028;-71
2021/06/09 14:37:50;;;;;;;2.30;1.58;;;23.10;51.50;;;;;;6291241;28;20032;-71
2021/06/09 14:40:52;;;;;;;2.40;1.30;;;23.10;51.50;;;;;;6290369;28;20056;-69
2021/06/09 14:44:09;;;;;;;2.60;1.50;;;23.10;51.50;;;;;;6289631;28;20174;-70
2021/06/09 14:50:22;;;;;;;2.78;1.48;;;23.10;51.50;;;;;;6290887;28;20093;-69
2021/06/09 14:53:23;;;;;;;2.20;1.60;;;23.10;51.50;;;;;;6279840;28;20471;-70
2021/06/09 14:56:25;;;;;;;1.73;1.33;;;23.10;51.50;;;;;;6289258;28;20032;-70
2021/06/09 14:59:26;;;;;;;2.10;1.55;;;23.10;51.60;;;;;;6281930;28;20100;-69
2021/06/09 15:02:31;;;;;;;1.85;1.23;;;23.10;51.50;;;;;;6282511;28;20085;-69
2021/06/09 15:05:32;;;;;;;2.47;1.50;;;23.10;51.60;;;;;;6285987;28;20035;-69
2021/06/09 15:08:34;;;;;;;3.70;1.60;;;23.10;51.50;;;;;;6289877;28;20029;-69
2021/06/09 15:11:35;;;;;;;2.05;1.33;;;23.10;51.60;;;;;;6290044;28;20021;-69
2021/06/09 15:14:36;;;;;;;2.33;1.50;;;23.10;51.50;;;;;;6290511;28;20127;-71
2021/06/09 15:17:37;;;;;;;2.05;1.40;;;23.10;51.50;;;;;;6290523;28;20561;-71
2021/06/09 15:20:37;;;;;;;2.10;1.42;;;23.10;51.60;;;;;;6289245;28;20024;-72
2021/06/09 15:23:38;;;;;;;2.95;1.23;;;23.10;51.60;;;;;;6291088;28;20024;-72
2021/06/09 15:26:39;;;;;;;1.67;1.27;;;23.10;51.60;;;;;;6289961;28;20024;-71
2021/06/09 15:29:40;;;;;;;2.20;1.42;;;23.10;51.60;;;;;;6271734;28;20391;-72
2021/06/09 15:32:41;;;;;;;1.17;1.05;;;23.10;51.60;;;;;;6290072;28;20441;-72
2021/06/09 15:35:43;;;;;;;1.95;1.52;;;23.10;51.60;;;;;;6287405;28;20028;-71
2021/06/09 15:38:43;;;;;;;1.63;1.20;;;23.10;51.60;;;;;;6290133;28;20025;-71
2021/06/09 15:41:46;;;;;;;2.00;1.38;;;23.10;51.60;;;;;;6289921;28;20028;-71
2021/06/09 15:44:47;;;;;;;1.17;1.00;;;23.10;51.60;;;;;;6289807;28;20032;-70
2021/06/09 15:47:47;;;;;;;1.90;1.38;;;23.10;51.60;;;;;;6267170;28;20491;-70
2021/06/09 15:50:48;;;;;;;1.95;1.17;;;23.10;51.60;;;;;;6272583;28;20028;-70
2021/06/09 15:53:49;;;;;;;2.60;1.30;;;23.10;51.60;;;;;;6269663;28;20037;-69
2021/06/09 15:56:49;;;;;;;1.98;1.45;;;23.10;51.60;;;;;;6277174;28;20487;-70
2021/06/09 15:59:51;;;;;;;1.95;1.38;;;23.10;51.60;;;;;;6288919;28;20035;-70